GLD1794 HUKJ-HUJI

Flight info

Callsign GLD1794
Flight time 0h 15m
Altitude 7000
Route DCT
Aircraft BE58/L-SDFGRY/C

Departure

Time 2026-05-09 12:02
Airport Kajjansi Airfield (HUKJ)

Arrival

Time 2026-05-09 12:18
Airport Jinja Airport (HUJI)
Time Latitude Longitude Altitude Speed Heading
2026-05-09 11:49 0.19904 32.55046 3750 ft 0 kts 314°
2026-05-09 11:59 0.19912 32.55045 3752 ft 6 kts 28°
2026-05-09 11:59 0.19879 32.55114 3751 ft 13 kts 85°
2026-05-09 11:59 0.19833 32.55168 3751 ft 12 kts 142°
2026-05-09 12:00 0.19739 32.55241 3753 ft 21 kts 137°
2026-05-09 12:00 0.19647 32.55323 3752 ft 15 kts 138°
2026-05-09 12:00 0.19562 32.55393 3751 ft 19 kts 142°
2026-05-09 12:00 0.19459 32.55470 3751 ft 17 kts 140°
2026-05-09 12:01 0.19368 32.55544 3748 ft 17 kts 139°
2026-05-09 12:01 0.19308 32.55606 3746 ft 8 kts
2026-05-09 12:01 0.19434 32.55498 3750 ft 61 kts 320°
2026-05-09 12:01 0.19929 32.55090 3821 ft 112 kts 324°
2026-05-09 12:02 0.20583 32.54605 4155 ft 124 kts 318°
2026-05-09 12:02 0.21251 32.54030 4556 ft 130 kts 316°
2026-05-09 12:02 0.21952 32.53404 4981 ft 140 kts 316°
2026-05-09 12:02 0.22718 32.52764 5391 ft 148 kts 333°
2026-05-09 12:03 0.23723 32.52754 5824 ft 150 kts 29°
2026-05-09 12:03 0.24378 32.53527 6257 ft 149 kts 68°
2026-05-09 12:03 0.24740 32.54503 6672 ft 151 kts 70°
2026-05-09 12:03 0.25110 32.55502 6985 ft 159 kts 69°
2026-05-09 12:04 0.25562 32.56584 7002 ft 177 kts 67°
2026-05-09 12:04 0.26082 32.57749 6999 ft 189 kts 66°
2026-05-09 12:04 0.26637 32.58971 6997 ft 197 kts 66°
2026-05-09 12:04 0.27200 32.60214 6996 ft 201 kts 66°
2026-05-09 12:05 0.27788 32.61512 6993 ft 204 kts 66°
2026-05-09 12:05 0.28368 32.62793 6982 ft 206 kts 66°
2026-05-09 12:05 0.28961 32.64102 6981 ft 207 kts 66°
2026-05-09 12:05 0.29554 32.65413 6979 ft 208 kts 66°
2026-05-09 12:06 0.30151 32.66731 6976 ft 208 kts 66°
2026-05-09 12:06 0.30747 32.68047 6972 ft 208 kts 66°
2026-05-09 12:06 0.31345 32.69369 6972 ft 208 kts 66°
2026-05-09 12:06 0.31943 32.70688 6973 ft 208 kts 66°
2026-05-09 12:07 0.32540 32.72008 6970 ft 209 kts 65°
2026-05-09 12:07 0.33138 32.73330 6948 ft 209 kts 65°
2026-05-09 12:07 0.33738 32.74653 6948 ft 209 kts 65°
2026-05-09 12:07 0.34338 32.75978 6948 ft 209 kts 65°
2026-05-09 12:08 0.34929 32.77284 6946 ft 209 kts 65°
2026-05-09 12:08 0.35528 32.78608 6946 ft 209 kts 65°
2026-05-09 12:08 0.36129 32.79935 6946 ft 209 kts 65°
2026-05-09 12:08 0.36729 32.81259 6946 ft 209 kts 65°
2026-05-09 12:09 0.37330 32.82588 6951 ft 209 kts 65°
2026-05-09 12:09 0.37728 32.83467 6951 ft 209 kts 65°
2026-05-09 12:09 0.38329 32.84795 6929 ft 209 kts 65°
2026-05-09 12:10 0.40130 32.88773 6938 ft 209 kts 65°
2026-05-09 12:10 0.40731 32.90099 6935 ft 209 kts 66°
2026-05-09 12:10 0.41331 32.91425 6936 ft 209 kts 65°
2026-05-09 12:11 0.41931 32.92751 6935 ft 210 kts 66°
2026-05-09 12:11 0.42532 32.94078 6935 ft 210 kts 66°
2026-05-09 12:11 0.43133 32.95406 6914 ft 210 kts 66°
2026-05-09 12:11 0.43733 32.96732 6913 ft 210 kts 66°
2026-05-09 12:12 0.44334 32.98059 6914 ft 210 kts 65°
2026-05-09 12:12 0.44935 32.99387 6913 ft 210 kts 66°
2026-05-09 12:12 0.45536 33.00714 6914 ft 210 kts 66°
2026-05-09 12:12 0.46138 33.02044 6913 ft 210 kts 66°
2026-05-09 12:13 0.46739 33.03371 6913 ft 210 kts 66°
2026-05-09 12:13 0.47343 33.04707 6834 ft 212 kts 65°
2026-05-09 12:13 0.47919 33.05979 6634 ft 187 kts 66°
2026-05-09 12:13 0.48424 33.07096 6366 ft 172 kts 65°
2026-05-09 12:14 0.48901 33.08149 6055 ft 162 kts 66°
2026-05-09 12:14 0.49357 33.09155 5742 ft 156 kts 66°
2026-05-09 12:14 0.49799 33.10132 5486 ft 152 kts 67°
2026-05-09 12:14 0.50222 33.11064 5403 ft 146 kts 68°
2026-05-09 12:15 0.50382 33.12050 5246 ft 145 kts 100°
2026-05-09 12:15 0.50031 33.12957 5104 ft 136 kts 128°
2026-05-09 12:15 0.49492 33.13670 4935 ft 124 kts 129°
2026-05-09 12:15 0.48998 33.14337 4733 ft 117 kts 130°
2026-05-09 12:16 0.48532 33.14992 4579 ft 115 kts 127°
2026-05-09 12:16 0.48061 33.15658 4507 ft 119 kts 130°
2026-05-09 12:16 0.47571 33.16320 4400 ft 115 kts 130°
2026-05-09 12:16 0.47091 33.16943 4255 ft 111 kts 130°
2026-05-09 12:17 0.46632 33.17556 4122 ft 111 kts 130°
2026-05-09 12:17 0.46165 33.18165 3991 ft 108 kts 131°
2026-05-09 12:17 0.45715 33.18760 3876 ft 106 kts 130°
2026-05-09 12:17 0.45329 33.19275 3868 ft 70 kts 127°
2026-05-09 12:18 0.45165 33.19497 3870 ft 24 kts 122°
2026-05-09 12:18 0.45105 33.19559 3867 ft 9 kts 251°
2026-05-09 12:18 0.45127 33.19527 3867 ft 3 kts 310°
2026-05-09 12:18 0.45144 33.19507 3868 ft 4 kts 309°
2026-05-09 12:19 0.45172 33.19473 3868 ft 12 kts 308°
2026-05-09 12:19 0.45227 33.19400 3870 ft 11 kts 306°
2026-05-09 12:19 0.45245 33.19340 3867 ft 11 kts 227°
2026-05-09 12:19 0.45193 33.19301 3867 ft 9 kts 225°
2026-05-09 12:20 0.45180 33.19268 3868 ft 5 kts 126°
2026-05-09 12:20 0.45179 33.19269 3868 ft 0 kts 126°